createdAt,value
2022-12-18T00:00:25.423Z,39.50
2022-12-18T00:03:16.321Z,45.30
2022-12-18T00:05:49.863Z,45.90
2022-12-18T00:08:18.990Z,42.00
2022-12-18T00:10:47.495Z,42.10
2022-12-18T00:13:16.106Z,42.00
2022-12-18T00:15:45.110Z,46.00
2022-12-18T00:18:16.068Z,38.20
2022-12-18T00:20:47.964Z,39.80
2022-12-18T00:23:16.519Z,42.30
2022-12-18T00:25:45.097Z,35.40
2022-12-18T00:28:13.771Z,40.40
2022-12-18T00:30:42.887Z,38.00
2022-12-18T00:33:11.434Z,36.60
2022-12-18T00:35:40.772Z,34.80
2022-12-18T00:38:09.326Z,34.70
2022-12-18T00:40:37.933Z,36.60
2022-12-18T00:43:06.868Z,40.80
2022-12-18T00:45:35.433Z,40.80
2022-12-18T00:48:04.127Z,38.00
2022-12-18T00:50:34.023Z,40.60
2022-12-18T00:53:02.850Z,41.80
2022-12-18T00:55:31.382Z,42.10
2022-12-18T00:58:00.893Z,41.70
2022-12-18T01:00:30.534Z,42.20
2022-12-18T01:02:59.565Z,38.60
2022-12-18T01:05:29.452Z,41.50
2022-12-18T01:07:58.309Z,41.50
2022-12-18T01:10:27.202Z,41.00
2022-12-18T01:12:59.844Z,40.90
2022-12-18T01:15:28.507Z,43.60
2022-12-18T01:17:57.029Z,44.40
2022-12-18T01:20:26.146Z,44.50
2022-12-18T01:22:54.682Z,44.00
2022-12-18T01:25:23.284Z,45.90
2022-12-18T01:27:53.459Z,44.70
2022-12-18T01:30:22.053Z,45.10
2022-12-18T01:32:50.739Z,41.80
2022-12-18T01:35:19.417Z,39.70
2022-12-18T01:37:48.514Z,44.90
2022-12-18T01:40:17.137Z,47.20
2022-12-18T01:42:45.717Z,43.90
2022-12-18T01:45:17.047Z,46.80
2022-12-18T01:47:50.629Z,42.80
2022-12-18T01:50:24.555Z,41.40
2022-12-18T01:52:56.873Z,45.60
2022-12-18T01:55:29.282Z,43.30
2022-12-18T02:00:28.967Z,48.50
2022-12-18T02:02:58.360Z,50.70
2022-12-18T02:05:35.861Z,49.40
2022-12-18T02:08:27.475Z,47.40
2022-12-18T02:11:18.052Z,46.40
2022-12-18T02:13:46.530Z,44.40
2022-12-18T02:16:22.704Z,45.90
2022-12-18T02:18:58.987Z,46.40
2022-12-18T02:21:52.607Z,48.60
2022-12-18T02:24:55.281Z,45.60
2022-12-18T02:27:23.927Z,49.70
2022-12-18T02:29:58.865Z,46.70
2022-12-18T02:32:35.032Z,46.80
2022-12-18T02:35:06.818Z,43.10
2022-12-18T02:37:37.213Z,44.10
2022-12-18T02:40:09.539Z,42.70
2022-12-18T02:42:38.866Z,45.60
2022-12-18T02:45:09.462Z,42.30
2022-12-18T02:47:43.193Z,43.90
2022-12-18T02:50:26.742Z,39.70
2022-12-18T02:53:15.352Z,37.30
2022-12-18T02:55:58.492Z,42.40
2022-12-18T02:59:00.095Z,41.50
2022-12-18T03:01:44.304Z,37.40
2022-12-18T03:04:23.670Z,37.90
2022-12-18T03:06:56.749Z,40.50
2022-12-18T03:09:34.135Z,38.30
2022-12-18T03:12:25.089Z,39.00
2022-12-18T03:15:01.074Z,39.90
2022-12-18T03:17:33.221Z,37.80
2022-12-18T03:20:12.390Z,33.60
2022-12-18T03:22:44.242Z,35.20
2022-12-18T03:25:16.076Z,32.90
2022-12-18T03:27:50.446Z,36.40
2022-12-18T03:30:20.237Z,34.80
2022-12-18T03:33:00.555Z,34.00
2022-12-18T03:35:38.905Z,31.20
2022-12-18T03:38:08.022Z,34.40
2022-12-18T03:40:54.333Z,35.90
2022-12-18T03:43:52.226Z,33.30
2022-12-18T03:46:45.190Z,32.10
2022-12-18T03:49:49.222Z,30.30
2022-12-18T03:52:27.812Z,32.50
2022-12-18T03:55:00.866Z,33.80
2022-12-18T03:57:32.554Z,28.80
2022-12-18T04:00:14.168Z,28.40
2022-12-18T04:02:49.485Z,31.00
2022-12-18T04:05:25.280Z,28.00
2022-12-18T04:07:55.725Z,29.80
2022-12-18T04:10:25.002Z,33.10
2022-12-18T04:12:57.438Z,28.30
2022-12-18T04:15:26.495Z,25.50
2022-12-18T04:17:55.314Z,27.20
2022-12-18T04:20:25.409Z,27.40
2022-12-18T04:22:55.390Z,23.90
2022-12-18T04:25:24.226Z,25.90
2022-12-18T04:27:59.682Z,25.50
2022-12-18T04:30:28.252Z,29.40
2022-12-18T04:32:56.793Z,28.30
2022-12-18T04:35:25.586Z,23.40
2022-12-18T04:37:54.124Z,27.50
2022-12-18T04:40:22.662Z,28.80
2022-12-18T04:42:52.805Z,26.80
2022-12-18T04:45:21.383Z,20.20
2022-12-18T04:47:49.914Z,20.50
2022-12-18T04:50:19.035Z,23.50
2022-12-18T04:52:47.599Z,26.80
2022-12-18T04:55:16.400Z,24.30
2022-12-18T04:57:45.290Z,21.30
2022-12-18T05:00:14.465Z,26.00
2022-12-18T05:02:43.133Z,23.40
2022-12-18T05:05:12.058Z,25.20
2022-12-18T05:07:40.749Z,22.20
2022-12-18T05:10:10.774Z,24.30
2022-12-18T05:13:00.980Z,23.60
2022-12-18T05:15:31.751Z,20.80
2022-12-18T05:18:01.108Z,22.50
2022-12-18T05:20:29.817Z,19.10
2022-12-18T05:22:58.949Z,23.60
2022-12-18T05:25:28.231Z,20.40
2022-12-18T05:27:56.686Z,19.30
2022-12-18T05:30:25.921Z,19.20
2022-12-18T05:32:55.257Z,17.20
2022-12-18T05:35:23.928Z,18.10
2022-12-18T05:37:52.437Z,20.10
2022-12-18T05:40:21.149Z,17.40
2022-12-18T05:42:49.666Z,16.70
2022-12-18T05:45:18.603Z,21.40
2022-12-18T05:47:47.265Z,19.60
2022-12-18T05:50:16.546Z,16.40
2022-12-18T05:52:45.140Z,21.90
2022-12-18T05:55:13.745Z,17.40
2022-12-18T05:57:42.524Z,17.40
2022-12-18T06:00:12.030Z,19.80
2022-12-18T06:05:12.547Z,19.30
2022-12-18T06:07:41.678Z,17.20
2022-12-18T06:10:10.291Z,19.90
2022-12-18T06:12:38.932Z,16.80
2022-12-18T06:15:08.331Z,18.50
2022-12-18T06:17:38.110Z,16.80
2022-12-18T06:20:08.065Z,17.80
2022-12-18T06:22:36.630Z,17.90
2022-12-18T06:25:07.101Z,19.60
2022-12-18T06:27:36.526Z,18.40
2022-12-18T06:30:06.229Z,21.40
2022-12-18T06:32:34.983Z,18.60
2022-12-18T06:35:03.713Z,18.70
2022-12-18T06:37:32.842Z,17.60
2022-12-18T06:40:02.129Z,18.70
2022-12-18T06:42:30.946Z,21.60
2022-12-18T06:44:59.448Z,20.40
2022-12-18T06:47:28.044Z,19.20
2022-12-18T06:49:56.705Z,18.70
2022-12-18T06:52:25.208Z,21.50
2022-12-18T06:54:54.130Z,21.70
2022-12-18T06:57:22.787Z,22.20
2022-12-18T06:59:51.433Z,23.30
2022-12-18T07:02:21.511Z,20.40
2022-12-18T07:04:50.186Z,22.50
2022-12-18T07:07:18.876Z,22.40
2022-12-18T07:09:47.491Z,20.50
2022-12-18T07:12:16.026Z,22.10
2022-12-18T07:14:44.809Z,21.70
2022-12-18T07:17:14.032Z,20.20
2022-12-18T07:19:42.601Z,21.20
2022-12-18T07:22:11.104Z,21.30
2022-12-18T07:24:39.774Z,20.90
2022-12-18T07:27:08.251Z,22.10
2022-12-18T07:29:37.399Z,22.90
2022-12-18T07:32:06.784Z,21.40
2022-12-18T07:34:35.988Z,22.20
2022-12-18T07:37:05.922Z,20.70
2022-12-18T07:39:34.534Z,22.30
2022-12-18T07:42:23.378Z,21.20
2022-12-18T08:00:47.735Z,21.80
2022-12-18T08:03:17.418Z,23.00
2022-12-18T08:05:45.754Z,27.90
2022-12-18T08:08:14.101Z,25.70
2022-12-18T08:10:42.602Z,24.10
2022-12-18T08:13:10.844Z,29.20
2022-12-18T08:15:39.124Z,25.80
2022-12-18T08:18:12.675Z,25.40
2022-12-18T08:20:42.748Z,25.50
2022-12-18T08:23:11.252Z,24.40
2022-12-18T08:25:39.468Z,28.20
2022-12-18T08:28:07.990Z,26.50
2022-12-18T08:30:37.167Z,28.30
2022-12-18T08:33:06.170Z,29.00
2022-12-18T08:35:44.047Z,28.80
2022-12-18T08:38:14.000Z,29.60
2022-12-18T08:40:42.398Z,28.40
2022-12-18T08:43:34.667Z,31.10
2022-12-18T08:46:03.246Z,33.60
2022-12-18T08:48:31.624Z,27.50
2022-12-18T08:51:00.838Z,28.90
2022-12-18T08:53:34.156Z,27.40
2022-12-18T08:56:04.744Z,31.90
2022-12-18T08:58:33.624Z,35.60
2022-12-18T09:01:04.662Z,30.40
2022-12-18T09:03:34.629Z,29.10
2022-12-18T09:06:03.359Z,38.70
2022-12-18T09:08:31.748Z,32.20
2022-12-18T09:11:03.004Z,35.10
2022-12-18T09:13:31.383Z,35.00
2022-12-18T09:15:59.949Z,31.60
2022-12-18T09:18:28.219Z,33.60
2022-12-18T09:20:56.772Z,34.70
2022-12-18T09:23:25.084Z,34.30
2022-12-18T09:26:00.665Z,34.40
2022-12-18T09:28:29.008Z,33.30
2022-12-18T09:30:57.557Z,35.00
2022-12-18T09:33:26.136Z,31.10
2022-12-18T09:35:54.496Z,35.00
2022-12-18T09:38:24.232Z,36.10
2022-12-18T09:40:59.905Z,33.90
2022-12-18T09:43:46.362Z,29.70
2022-12-18T09:46:26.669Z,33.50
2022-12-18T09:49:00.220Z,36.40
2022-12-18T09:51:37.334Z,35.60
2022-12-18T09:54:11.769Z,31.80
2022-12-18T09:56:43.680Z,29.50
2022-12-18T09:59:37.097Z,28.40
2022-12-18T10:02:35.104Z,32.30
2022-12-18T10:05:26.583Z,30.80
2022-12-18T10:08:04.327Z,27.70
2022-12-18T10:10:55.810Z,26.30
2022-12-18T10:13:36.332Z,30.30
2022-12-18T10:16:17.332Z,30.60
2022-12-18T10:19:04.808Z,28.90
2022-12-18T10:22:03.926Z,29.50
2022-12-18T10:24:37.083Z,28.40
2022-12-18T10:27:17.525Z,32.20
2022-12-18T10:29:47.259Z,27.70
2022-12-18T10:32:30.639Z,32.70
2022-12-18T10:35:00.665Z,28.80
2022-12-18T10:37:30.959Z,30.30
2022-12-18T10:40:18.448Z,29.00
2022-12-18T10:43:15.602Z,25.80
2022-12-18T10:46:00.297Z,25.30
2022-12-18T10:48:31.104Z,29.50
2022-12-18T10:51:10.949Z,28.00
2022-12-18T10:53:44.122Z,26.20
2022-12-18T10:56:13.500Z,30.10
2022-12-18T10:58:42.171Z,28.20
2022-12-18T11:01:18.268Z,26.70
2022-12-18T11:04:01.631Z,25.40
2022-12-18T11:06:30.774Z,26.20
2022-12-18T11:09:06.690Z,30.60
2022-12-18T11:11:39.497Z,24.50
2022-12-18T11:14:19.358Z,29.60
2022-12-18T11:17:23.906Z,25.80
2022-12-18T11:19:41.080Z,26.30
2022-12-18T11:22:27.655Z,24.60
2022-12-18T11:27:57.400Z,23.60
2022-12-18T11:30:34.459Z,22.90
2022-12-18T11:33:13.199Z,23.30
2022-12-18T11:36:04.762Z,22.60
2022-12-18T11:38:43.828Z,22.50
2022-12-18T11:41:55.879Z,22.70
2022-12-18T11:44:29.837Z,20.40
2022-12-18T11:47:04.744Z,23.90
2022-12-18T11:49:37.384Z,21.80
2022-12-18T11:54:33.789Z,22.80
2022-12-18T11:57:04.934Z,23.10
2022-12-18T11:59:49.268Z,21.80
2022-12-18T12:02:36.200Z,20.10
2022-12-18T12:05:10.703Z,20.40
2022-12-18T12:08:17.488Z,21.20
2022-12-18T12:11:01.949Z,17.70
2022-12-18T12:13:51.961Z,18.50
2022-12-18T12:16:29.890Z,17.80
2022-12-18T12:19:17.400Z,18.40
2022-12-18T12:21:58.403Z,15.30
2022-12-18T12:24:40.720Z,17.30
2022-12-18T12:27:36.849Z,13.80
2022-12-18T12:30:15.657Z,16.70
2022-12-18T12:32:53.276Z,16.70
2022-12-18T12:35:37.420Z,16.10
2022-12-18T12:38:14.092Z,16.90
2022-12-18T12:40:55.281Z,15.40
2022-12-18T12:43:50.223Z,15.30
2022-12-18T12:46:22.865Z,15.20
2022-12-18T12:48:56.749Z,13.10
2022-12-18T12:51:32.168Z,13.30
2022-12-18T12:54:02.779Z,13.70
2022-12-18T12:56:51.501Z,12.30
2022-12-18T12:59:22.597Z,12.50
2022-12-18T13:02:00.801Z,12.80
2022-12-18T13:04:43.636Z,12.50
2022-12-18T13:07:29.903Z,12.90
2022-12-18T13:10:39.119Z,12.00
2022-12-18T13:13:47.566Z,9.80
2022-12-18T13:16:09.278Z,12.80
2022-12-18T13:18:37.980Z,11.60
2022-12-18T13:21:22.945Z,13.60
2022-12-18T13:23:52.266Z,13.30
2022-12-18T13:26:28.134Z,11.00
2022-12-18T13:28:59.371Z,14.80
2022-12-18T13:31:43.532Z,15.10
2022-12-18T13:34:28.294Z,12.60
2022-12-18T13:37:32.669Z,14.10
2022-12-18T13:40:01.455Z,14.20
2022-12-18T13:42:58.179Z,15.30
2022-12-18T13:45:39.907Z,13.80
2022-12-18T13:48:19.274Z,17.90
2022-12-18T13:50:56.204Z,16.40
2022-12-18T13:53:53.008Z,16.80
2022-12-18T13:56:27.753Z,17.70
2022-12-18T13:59:14.067Z,14.70
2022-12-18T14:01:45.156Z,17.00
2022-12-18T14:04:20.819Z,16.80
2022-12-18T14:06:52.551Z,17.10
2022-12-18T14:09:37.355Z,15.50
2022-12-18T14:12:31.828Z,17.10
2022-12-18T14:15:02.943Z,17.30
2022-12-18T14:17:33.362Z,16.20
2022-12-18T14:20:03.845Z,18.80
2022-12-18T14:22:32.250Z,15.80
2022-12-18T14:25:18.151Z,15.70
2022-12-18T14:28:03.389Z,16.40
2022-12-18T14:30:44.377Z,16.40
2022-12-18T14:33:15.057Z,17.00
2022-12-18T14:35:54.770Z,19.30
2022-12-18T14:38:28.153Z,14.50
2022-12-18T14:41:06.092Z,16.20
2022-12-18T14:43:37.566Z,16.30
2022-12-18T14:46:26.964Z,17.10
2022-12-18T14:48:57.479Z,18.20
2022-12-18T14:51:28.681Z,17.90
2022-12-18T14:54:01.507Z,17.00
2022-12-18T14:56:44.217Z,19.30
2022-12-18T14:59:25.933Z,21.90
2022-12-18T15:02:21.459Z,23.40
2022-12-18T15:05:13.367Z,19.60
2022-12-18T15:07:44.342Z,18.60
2022-12-18T15:10:22.310Z,19.30
2022-12-18T15:12:57.665Z,20.50
2022-12-18T15:15:37.115Z,24.50
2022-12-18T15:18:14.118Z,22.90
2022-12-18T15:21:09.867Z,28.30
2022-12-18T15:23:44.872Z,26.10
2022-12-18T15:26:16.695Z,27.80
2022-12-18T15:28:51.363Z,25.90
2022-12-18T15:31:25.750Z,28.10
2022-12-18T15:33:54.190Z,27.30
2022-12-18T15:36:26.321Z,29.60
2022-12-18T15:39:05.358Z,31.40
2022-12-18T15:41:37.741Z,25.20
2022-12-18T15:44:25.793Z,31.50
2022-12-18T15:46:54.104Z,35.70
2022-12-18T15:49:22.396Z,28.50
2022-12-18T15:51:55.065Z,32.60
2022-12-18T15:54:43.845Z,33.70
2022-12-18T15:57:24.751Z,34.60
2022-12-18T15:59:57.516Z,31.20
2022-12-18T16:02:27.178Z,32.20
2022-12-18T16:04:55.888Z,30.60
2022-12-18T16:07:25.006Z,34.80
2022-12-18T16:09:54.327Z,33.20
2022-12-18T16:12:26.652Z,31.70
2022-12-18T16:14:55.008Z,34.50
2022-12-18T16:17:23.495Z,31.50
2022-12-18T16:19:51.826Z,37.20
2022-12-18T16:22:26.673Z,33.00
2022-12-18T16:24:56.849Z,41.80
2022-12-18T16:27:25.986Z,36.30
2022-12-18T16:29:54.511Z,38.60
2022-12-18T16:32:23.672Z,40.90
2022-12-18T16:34:53.025Z,34.40
2022-12-18T16:37:21.308Z,41.00
2022-12-18T16:39:49.684Z,40.70
2022-12-18T16:42:20.705Z,44.00
2022-12-18T16:44:50.347Z,42.70
2022-12-18T16:47:19.889Z,39.00
2022-12-18T16:49:51.869Z,41.80
2022-12-18T16:52:20.796Z,42.20
2022-12-18T16:54:49.184Z,41.80
2022-12-18T16:57:21.073Z,43.20
2022-12-18T16:59:52.164Z,51.40
2022-12-18T17:02:24.433Z,39.30
2022-12-18T17:04:57.562Z,40.40
2022-12-18T17:07:26.899Z,41.10
2022-12-18T17:09:55.787Z,41.80
2022-12-18T17:12:24.425Z,41.00
2022-12-18T17:14:52.774Z,45.80
2022-12-18T17:17:22.837Z,42.90
2022-12-18T17:19:52.782Z,45.60
2022-12-18T17:22:23.500Z,43.70
2022-12-18T17:24:52.033Z,39.80
2022-12-18T17:27:20.530Z,47.90
2022-12-18T17:29:49.377Z,44.80
2022-12-18T17:32:18.367Z,45.50
2022-12-18T17:34:46.890Z,45.70
2022-12-18T17:37:15.817Z,39.40
2022-12-18T17:39:44.386Z,52.20
2022-12-18T17:42:15.557Z,42.20
2022-12-18T17:44:45.211Z,44.10
2022-12-18T17:47:14.051Z,48.60
2022-12-18T17:49:42.413Z,45.20
2022-12-18T17:52:11.048Z,46.60
2022-12-18T17:54:42.175Z,45.70
2022-12-18T17:57:11.225Z,46.30
2022-12-18T17:59:39.843Z,46.50
2022-12-18T18:02:11.890Z,44.90
2022-12-18T18:07:08.865Z,47.40
2022-12-18T18:09:37.166Z,46.50
2022-12-18T18:12:38.198Z,47.50
2022-12-18T18:15:07.250Z,46.50
2022-12-18T18:17:36.603Z,47.00
2022-12-18T18:20:06.312Z,49.40
2022-12-18T18:22:34.820Z,48.30
2022-12-18T18:25:03.883Z,42.30
2022-12-18T18:53:07.892Z,41.70
2022-12-18T18:55:37.658Z,47.50
2022-12-18T18:58:06.128Z,42.20
2022-12-18T19:00:35.863Z,48.30
2022-12-18T19:03:04.876Z,43.90
2022-12-18T19:05:34.251Z,42.30
2022-12-18T19:08:02.919Z,47.50
2022-12-18T19:10:31.472Z,45.00
2022-12-18T19:13:18.395Z,42.60
2022-12-18T19:15:48.545Z,45.50
2022-12-18T19:18:17.654Z,48.30
2022-12-18T19:20:56.091Z,46.00
2022-12-18T19:23:24.847Z,46.70
2022-12-18T19:26:16.815Z,47.10
2022-12-18T19:28:42.494Z,39.50
2022-12-18T19:31:13.768Z,42.30
2022-12-18T19:33:44.871Z,48.40
2022-12-18T19:36:21.037Z,46.30
2022-12-18T19:38:51.096Z,44.80
2022-12-18T19:41:20.594Z,49.40
2022-12-18T19:43:50.818Z,44.60
2022-12-18T19:46:21.814Z,54.30
2022-12-18T19:48:51.056Z,57.30
2022-12-18T19:51:25.671Z,53.70
2022-12-18T19:53:58.911Z,52.10
2022-12-18T19:56:32.710Z,53.70
2022-12-18T19:59:02.383Z,59.00
2022-12-18T20:01:31.633Z,54.90
2022-12-18T20:04:01.010Z,57.60
2022-12-18T20:06:32.998Z,54.60
2022-12-18T20:09:05.151Z,54.00
2022-12-18T20:11:38.377Z,45.50
2022-12-18T20:14:11.704Z,51.80
2022-12-18T20:16:41.766Z,56.10
2022-12-18T20:19:12.854Z,54.70
2022-12-18T20:21:42.331Z,62.40
2022-12-18T20:24:10.899Z,59.00
2022-12-18T20:26:40.676Z,60.70
2022-12-18T20:29:09.288Z,57.40
2022-12-18T20:31:37.840Z,56.20
2022-12-18T20:34:07.064Z,56.50
2022-12-18T20:36:37.553Z,59.30
2022-12-18T20:39:07.636Z,56.20
2022-12-18T20:41:39.321Z,51.40
2022-12-18T20:44:22.236Z,54.80
2022-12-18T20:46:57.179Z,53.20
2022-12-18T20:49:27.155Z,59.60
2022-12-18T20:51:57.786Z,59.00
2022-12-18T20:54:27.896Z,52.90
2022-12-18T20:56:57.461Z,56.70
2022-12-18T20:59:26.459Z,63.40
2022-12-18T21:01:56.047Z,58.80
2022-12-18T21:04:24.714Z,51.90
2022-12-18T21:06:59.134Z,59.00
2022-12-18T21:09:37.929Z,58.50
2022-12-18T21:12:34.990Z,58.60
2022-12-18T21:15:11.509Z,54.50
2022-12-18T21:17:44.832Z,55.70
2022-12-18T21:20:18.025Z,59.20
2022-12-18T21:22:49.269Z,54.50
2022-12-18T21:25:18.106Z,65.50
2022-12-18T21:27:46.660Z,58.90
2022-12-18T21:30:15.538Z,62.90
2022-12-18T21:32:44.443Z,56.70
2022-12-18T21:35:13.067Z,61.50
2022-12-18T21:37:41.567Z,61.50
2022-12-18T21:40:11.177Z,55.60
2022-12-18T21:42:58.427Z,57.20
2022-12-18T21:45:26.950Z,57.20
2022-12-18T21:47:55.491Z,53.60
2022-12-18T21:50:24.088Z,62.80
2022-12-18T21:52:52.663Z,54.90
2022-12-18T21:55:21.292Z,57.10
2022-12-18T21:57:50.363Z,58.50
2022-12-18T22:00:19.773Z,46.90
2022-12-18T22:02:59.904Z,52.50
2022-12-18T22:05:38.819Z,58.50
2022-12-18T22:08:07.713Z,61.40
2022-12-18T22:10:37.244Z,55.20
2022-12-18T22:13:07.551Z,51.60
2022-12-18T22:15:36.146Z,58.40
2022-12-18T22:18:04.824Z,56.50
2022-12-18T22:20:33.808Z,62.00
2022-12-18T22:23:05.596Z,57.10
2022-12-18T22:25:37.315Z,48.80
2022-12-18T22:28:27.069Z,58.20
2022-12-18T22:30:59.521Z,52.30
2022-12-18T22:33:28.574Z,55.90
2022-12-18T22:35:57.287Z,52.20
2022-12-18T22:38:27.052Z,57.50
2022-12-18T22:40:55.580Z,56.50
2022-12-18T22:43:24.500Z,54.80
2022-12-18T22:45:53.176Z,55.30
2022-12-18T22:48:21.852Z,54.40
2022-12-18T22:50:51.146Z,53.50
2022-12-18T22:53:24.698Z,52.00
2022-12-18T22:56:00.567Z,54.30
2022-12-18T22:58:29.238Z,50.90
2022-12-18T23:00:58.050Z,60.30
2022-12-18T23:03:26.625Z,57.10
2022-12-18T23:06:03.757Z,50.10
2022-12-18T23:08:32.846Z,64.30
2022-12-18T23:11:01.825Z,63.00
2022-12-18T23:13:30.612Z,56.80
2022-12-18T23:15:59.175Z,60.90
2022-12-18T23:18:27.683Z,58.20
2022-12-18T23:20:56.212Z,64.20
2022-12-18T23:23:25.165Z,59.50
2022-12-18T23:26:01.025Z,69.20
2022-12-18T23:28:32.013Z,63.90
2022-12-18T23:31:07.651Z,63.30
2022-12-18T23:33:36.439Z,58.10
2022-12-18T23:36:06.433Z,62.70
2022-12-18T23:38:35.577Z,67.30
2022-12-18T23:41:09.678Z,62.70
2022-12-18T23:43:38.424Z,62.90
2022-12-18T23:46:18.116Z,60.90
2022-12-18T23:48:47.594Z,62.50
2022-12-18T23:51:19.758Z,60.20
2022-12-18T23:53:48.357Z,64.90
2022-12-18T23:56:16.908Z,61.50
2022-12-18T23:58:45.511Z,65.80
